Bert Mooney Airport
KBTM : now visible

Airfield :











YOU CAN JOIN US ON...

 
LOGIN :

Register | Disclaimer

   EN    FR    IT 

 









Legend :    VFR   Marginal VFR   IFR   Intensive IFR   Very Intensive IFR
Visi :
Ceiling :
>= 8 km
>= 3000ft
5 to 8 km
1000 to 3000 ft
1500m to 5 km
500 to 1000 ft
800 to 1500m
200 to 500 ft
< 800m
< 200 ft
Symbols :   Thunderstorms  Fog  Heavy snow  Heavy precipitations  Wind > 20 kt






- Airport Elevation : 5550 ft
- IATA code : BTM


KBTM - Bert Mooney

CURRENT METAR :
  • 032053Z AUTO A2996 RMK AO2 SLPNO 58011 PWINO $

EXPIRED METARs :
  • 031953Z AUTO A3000 RMK AO2 SLPNO PWINO $
  • 031853Z AUTO 00000KT 10SM FEW120 17/08 A3000 RMK AO2 SLP113 T01720083
  • 030453Z AUTO 26006KT 10SM BKN120 17/09 A3003 RMK AO2 LTG DSNT NW RAB0358E29 SLP108 P0001 T01670094

TAF KBTM
Valid from the 03 at 18:00 until the 04 at 18:00 UTC


031734Z 0318/0418 22007KT P6SM -SHRA VCTS BKN080 BKN100CB
FM032200 29012G22KT P6SM VCTS SCT080 BKN120CB
FM040400 31006KT P6SM VCSH OVC100
KZLC FIR / North America



MET'MAP, your aeronautical weather chart ! - Copyright ORBIFLY December 2007 - Disclaimer

ORBIFLY MET'MAP TEAM :

Programming & Development : Alexandra Zaïnal
Original concept : Baudouin d'Aumeries
Technical & hardware support : Manuel Goepfert
Assistance : Marc-Olivier Méhu




SOURCES & CREDITS :

   NOAA       Earth
Advisory